sensor_id;sensor_type;location;lat;lon;timestamp;temperature;humidity
5154;DHT22;2595;53.584;10.084;2022-07-23T00:00:18;18.10;99.90
5154;DHT22;2595;53.584;10.084;2022-07-23T00:02:44;18.00;99.90
5154;DHT22;2595;53.584;10.084;2022-07-23T00:05:10;18.10;99.90
5154;DHT22;2595;53.584;10.084;2022-07-23T00:07:35;18.10;99.90
5154;DHT22;2595;53.584;10.084;2022-07-23T00:10:02;18.10;99.90
5154;DHT22;2595;53.584;10.084;2022-07-23T00:12:27;18.10;99.90
5154;DHT22;2595;53.584;10.084;2022-07-23T00:14:53;18.10;99.90
5154;DHT22;2595;53.584;10.084;2022-07-23T00:17:18;18.10;99.90
5154;DHT22;2595;53.584;10.084;2022-07-23T00:19:44;18.10;99.90
5154;DHT22;2595;53.584;10.084;2022-07-23T00:22:10;17.90;99.90
5154;DHT22;2595;53.584;10.084;2022-07-23T00:24:36;18.00;99.90
5154;DHT22;2595;53.584;10.084;2022-07-23T00:27:01;18.00;99.90
5154;DHT22;2595;53.584;10.084;2022-07-23T00:29:27;18.00;99.90
5154;DHT22;2595;53.584;10.084;2022-07-23T00:31:52;18.00;99.90
5154;DHT22;2595;53.584;10.084;2022-07-23T00:34:18;18.00;99.90
5154;DHT22;2595;53.584;10.084;2022-07-23T00:36:43;18.00;99.90
5154;DHT22;2595;53.584;10.084;2022-07-23T00:39:09;18.10;99.90
5154;DHT22;2595;53.584;10.084;2022-07-23T00:41:35;18.10;99.90
5154;DHT22;2595;53.584;10.084;2022-07-23T00:44:32;18.00;99.90
5154;DHT22;2595;53.584;10.084;2022-07-23T00:46:58;18.00;99.90
5154;DHT22;2595;53.584;10.084;2022-07-23T00:49:27;18.00;99.90
5154;DHT22;2595;53.584;10.084;2022-07-23T00:51:53;18.00;99.90
5154;DHT22;2595;53.584;10.084;2022-07-23T00:54:19;18.00;99.90
5154;DHT22;2595;53.584;10.084;2022-07-23T00:56:46;18.10;99.90
5154;DHT22;2595;53.584;10.084;2022-07-23T00:59:12;18.00;99.90
5154;DHT22;2595;53.584;10.084;2022-07-23T01:01:38;18.00;99.90
5154;DHT22;2595;53.584;10.084;2022-07-23T01:04:04;17.90;99.90
5154;DHT22;2595;53.584;10.084;2022-07-23T01:06:34;17.90;99.90
5154;DHT22;2595;53.584;10.084;2022-07-23T01:09:00;17.90;99.90
5154;DHT22;2595;53.584;10.084;2022-07-23T01:11:26;17.90;99.90
5154;DHT22;2595;53.584;10.084;2022-07-23T01:13:52;17.90;99.90
5154;DHT22;2595;53.584;10.084;2022-07-23T01:16:19;17.90;99.90
5154;DHT22;2595;53.584;10.084;2022-07-23T01:18:44;17.90;99.90
5154;DHT22;2595;53.584;10.084;2022-07-23T01:21:11;17.70;99.90
5154;DHT22;2595;53.584;10.084;2022-07-23T01:23:38;17.70;99.90
5154;DHT22;2595;53.584;10.084;2022-07-23T01:26:04;17.70;99.90
5154;DHT22;2595;53.584;10.084;2022-07-23T01:28:30;17.70;99.90
5154;DHT22;2595;53.584;10.084;2022-07-23T01:30:55;17.60;99.90
5154;DHT22;2595;53.584;10.084;2022-07-23T01:33:21;17.60;99.90
5154;DHT22;2595;53.584;10.084;2022-07-23T01:35:47;17.60;99.90
5154;DHT22;2595;53.584;10.084;2022-07-23T01:38:12;17.60;99.90
5154;DHT22;2595;53.584;10.084;2022-07-23T01:40:38;17.50;99.90
5154;DHT22;2595;53.584;10.084;2022-07-23T01:43:03;17.60;99.90
5154;DHT22;2595;53.584;10.084;2022-07-23T01:45:29;17.60;99.90
5154;DHT22;2595;53.584;10.084;2022-07-23T01:47:55;17.60;99.90
5154;DHT22;2595;53.584;10.084;2022-07-23T01:50:20;17.60;99.90
5154;DHT22;2595;53.584;10.084;2022-07-23T01:52:46;17.50;99.90
5154;DHT22;2595;53.584;10.084;2022-07-23T01:55:11;17.50;99.90
5154;DHT22;2595;53.584;10.084;2022-07-23T01:57:37;17.60;99.90
5154;DHT22;2595;53.584;10.084;2022-07-23T02:00:03;17.60;99.90
5154;DHT22;2595;53.584;10.084;2022-07-23T02:02:29;17.60;99.90
5154;DHT22;2595;53.584;10.084;2022-07-23T02:04:55;17.60;99.90
5154;DHT22;2595;53.584;10.084;2022-07-23T02:07:20;17.60;99.90
5154;DHT22;2595;53.584;10.084;2022-07-23T02:09:46;17.60;99.90
5154;DHT22;2595;53.584;10.084;2022-07-23T02:12:12;17.60;99.90
5154;DHT22;2595;53.584;10.084;2022-07-23T02:14:37;17.60;99.90
5154;DHT22;2595;53.584;10.084;2022-07-23T02:17:03;17.60;99.90
5154;DHT22;2595;53.584;10.084;2022-07-23T02:19:28;17.60;99.90
5154;DHT22;2595;53.584;10.084;2022-07-23T02:21:54;17.50;99.90
5154;DHT22;2595;53.584;10.084;2022-07-23T02:24:20;17.60;99.90
5154;DHT22;2595;53.584;10.084;2022-07-23T02:26:46;17.60;99.90
5154;DHT22;2595;53.584;10.084;2022-07-23T02:29:12;17.60;99.90
5154;DHT22;2595;53.584;10.084;2022-07-23T02:31:37;17.50;99.90
5154;DHT22;2595;53.584;10.084;2022-07-23T02:34:03;17.40;99.90
5154;DHT22;2595;53.584;10.084;2022-07-23T02:36:29;17.50;99.90
5154;DHT22;2595;53.584;10.084;2022-07-23T02:38:55;17.50;99.90
5154;DHT22;2595;53.584;10.084;2022-07-23T02:41:21;17.50;99.90
5154;DHT22;2595;53.584;10.084;2022-07-23T02:43:46;17.50;99.90
5154;DHT22;2595;53.584;10.084;2022-07-23T02:46:12;17.50;99.90
5154;DHT22;2595;53.584;10.084;2022-07-23T02:48:38;17.50;99.90
5154;DHT22;2595;53.584;10.084;2022-07-23T02:51:04;17.40;99.90
5154;DHT22;2595;53.584;10.084;2022-07-23T02:53:29;17.40;99.90
5154;DHT22;2595;53.584;10.084;2022-07-23T02:55:55;17.40;99.90
5154;DHT22;2595;53.584;10.084;2022-07-23T02:58:20;17.40;99.90
5154;DHT22;2595;53.584;10.084;2022-07-23T03:00:46;17.30;99.90
5154;DHT22;2595;53.584;10.084;2022-07-23T03:03:12;17.30;99.90
5154;DHT22;2595;53.584;10.084;2022-07-23T03:05:38;17.30;99.90
5154;DHT22;2595;53.584;10.084;2022-07-23T03:08:04;17.20;99.90
5154;DHT22;2595;53.584;10.084;2022-07-23T03:10:29;17.30;99.90
5154;DHT22;2595;53.584;10.084;2022-07-23T03:12:55;17.20;99.90
5154;DHT22;2595;53.584;10.084;2022-07-23T03:15:21;17.20;99.90
5154;DHT22;2595;53.584;10.084;2022-07-23T03:17:46;17.20;99.90
5154;DHT22;2595;53.584;10.084;2022-07-23T03:20:12;17.30;99.90
5154;DHT22;2595;53.584;10.084;2022-07-23T03:22:37;17.10;99.90
5154;DHT22;2595;53.584;10.084;2022-07-23T03:25:03;17.20;99.90
5154;DHT22;2595;53.584;10.084;2022-07-23T03:27:30;17.20;99.90
5154;DHT22;2595;53.584;10.084;2022-07-23T03:29:57;17.20;99.90
5154;DHT22;2595;53.584;10.084;2022-07-23T03:32:24;17.20;99.90
5154;DHT22;2595;53.584;10.084;2022-07-23T03:34:51;17.20;99.90
5154;DHT22;2595;53.584;10.084;2022-07-23T03:37:17;17.20;99.90
5154;DHT22;2595;53.584;10.084;2022-07-23T03:39:43;17.20;99.90
5154;DHT22;2595;53.584;10.084;2022-07-23T03:42:09;17.20;99.90
5154;DHT22;2595;53.584;10.084;2022-07-23T03:44:35;17.20;99.90
5154;DHT22;2595;53.584;10.084;2022-07-23T03:47:03;17.20;99.90
5154;DHT22;2595;53.584;10.084;2022-07-23T03:49:28;17.10;99.90
5154;DHT22;2595;53.584;10.084;2022-07-23T03:51:54;17.10;99.90
5154;DHT22;2595;53.584;10.084;2022-07-23T03:54:20;17.10;99.90
5154;DHT22;2595;53.584;10.084;2022-07-23T03:56:45;17.20;99.90
5154;DHT22;2595;53.584;10.084;2022-07-23T03:59:11;17.20;99.90
5154;DHT22;2595;53.584;10.084;2022-07-23T04:01:37;17.20;99.90
5154;DHT22;2595;53.584;10.084;2022-07-23T04:04:03;17.20;99.90
5154;DHT22;2595;53.584;10.084;2022-07-23T04:06:29;17.20;99.90
5154;DHT22;2595;53.584;10.084;2022-07-23T04:08:54;17.10;99.90
5154;DHT22;2595;53.584;10.084;2022-07-23T04:11:20;17.20;99.90
5154;DHT22;2595;53.584;10.084;2022-07-23T04:13:46;17.20;99.90
5154;DHT22;2595;53.584;10.084;2022-07-23T04:16:12;17.20;99.90
5154;DHT22;2595;53.584;10.084;2022-07-23T04:18:37;17.30;99.90
5154;DHT22;2595;53.584;10.084;2022-07-23T04:21:03;17.30;99.90
5154;DHT22;2595;53.584;10.084;2022-07-23T04:23:29;17.40;99.90
5154;DHT22;2595;53.584;10.084;2022-07-23T04:25:54;17.40;99.90
5154;DHT22;2595;53.584;10.084;2022-07-23T04:28:20;17.40;99.90
5154;DHT22;2595;53.584;10.084;2022-07-23T04:30:46;17.40;99.90
5154;DHT22;2595;53.584;10.084;2022-07-23T04:33:11;17.40;99.90
5154;DHT22;2595;53.584;10.084;2022-07-23T04:35:37;17.30;99.90
5154;DHT22;2595;53.584;10.084;2022-07-23T04:38:03;17.40;99.90
5154;DHT22;2595;53.584;10.084;2022-07-23T04:40:29;17.30;99.90
5154;DHT22;2595;53.584;10.084;2022-07-23T04:42:55;17.40;99.90
5154;DHT22;2595;53.584;10.084;2022-07-23T04:45:21;17.40;99.90
5154;DHT22;2595;53.584;10.084;2022-07-23T04:47:46;17.30;99.90
5154;DHT22;2595;53.584;10.084;2022-07-23T04:50:12;17.40;99.90
5154;DHT22;2595;53.584;10.084;2022-07-23T04:52:38;17.40;99.90
5154;DHT22;2595;53.584;10.084;2022-07-23T04:55:04;17.40;99.90
5154;DHT22;2595;53.584;10.084;2022-07-23T04:57:30;17.30;99.90
5154;DHT22;2595;53.584;10.084;2022-07-23T04:59:55;17.30;99.90
5154;DHT22;2595;53.584;10.084;2022-07-23T05:02:21;17.30;99.90
5154;DHT22;2595;53.584;10.084;2022-07-23T05:04:46;17.20;99.90
5154;DHT22;2595;53.584;10.084;2022-07-23T05:07:12;17.30;99.90
5154;DHT22;2595;53.584;10.084;2022-07-23T05:09:38;17.30;99.90
5154;DHT22;2595;53.584;10.084;2022-07-23T05:12:04;17.30;99.90
5154;DHT22;2595;53.584;10.084;2022-07-23T05:14:29;17.30;99.90
5154;DHT22;2595;53.584;10.084;2022-07-23T05:16:55;17.20;99.90
5154;DHT22;2595;53.584;10.084;2022-07-23T05:19:21;17.20;99.90
5154;DHT22;2595;53.584;10.084;2022-07-23T05:21:47;17.20;99.90
5154;DHT22;2595;53.584;10.084;2022-07-23T05:24:12;17.20;99.90
5154;DHT22;2595;53.584;10.084;2022-07-23T05:26:38;17.20;99.90
5154;DHT22;2595;53.584;10.084;2022-07-23T05:29:04;17.20;99.90
5154;DHT22;2595;53.584;10.084;2022-07-23T05:31:29;17.20;99.90
5154;DHT22;2595;53.584;10.084;2022-07-23T05:33:55;17.30;99.90
5154;DHT22;2595;53.584;10.084;2022-07-23T05:36:20;17.20;99.90
5154;DHT22;2595;53.584;10.084;2022-07-23T05:38:46;17.20;99.90
5154;DHT22;2595;53.584;10.084;2022-07-23T05:41:12;17.20;99.90
5154;DHT22;2595;53.584;10.084;2022-07-23T05:43:37;17.20;99.90
5154;DHT22;2595;53.584;10.084;2022-07-23T05:46:03;17.20;99.90
5154;DHT22;2595;53.584;10.084;2022-07-23T05:48:29;17.20;99.90
5154;DHT22;2595;53.584;10.084;2022-07-23T05:50:54;17.30;99.90
5154;DHT22;2595;53.584;10.084;2022-07-23T05:53:20;17.30;99.90
5154;DHT22;2595;53.584;10.084;2022-07-23T05:55:46;17.40;99.90
5154;DHT22;2595;53.584;10.084;2022-07-23T05:58:11;17.40;99.90
5154;DHT22;2595;53.584;10.084;2022-07-23T06:00:37;17.40;99.90
5154;DHT22;2595;53.584;10.084;2022-07-23T06:03:02;17.40;99.90
5154;DHT22;2595;53.584;10.084;2022-07-23T06:05:28;17.40;99.90
5154;DHT22;2595;53.584;10.084;2022-07-23T06:07:54;17.40;99.90
5154;DHT22;2595;53.584;10.084;2022-07-23T06:10:19;17.40;99.90
5154;DHT22;2595;53.584;10.084;2022-07-23T06:12:45;17.50;99.90
5154;DHT22;2595;53.584;10.084;2022-07-23T06:15:11;17.50;99.90
5154;DHT22;2595;53.584;10.084;2022-07-23T06:17:38;17.40;99.90
5154;DHT22;2595;53.584;10.084;2022-07-23T06:20:08;17.50;99.90
5154;DHT22;2595;53.584;10.084;2022-07-23T06:22:34;17.50;99.90
5154;DHT22;2595;53.584;10.084;2022-07-23T06:25:00;17.50;99.90
5154;DHT22;2595;53.584;10.084;2022-07-23T06:27:25;17.50;99.90
5154;DHT22;2595;53.584;10.084;2022-07-23T06:29:51;17.60;99.90
5154;DHT22;2595;53.584;10.084;2022-07-23T06:32:17;17.60;99.90
5154;DHT22;2595;53.584;10.084;2022-07-23T06:34:42;17.60;99.90
5154;DHT22;2595;53.584;10.084;2022-07-23T06:37:08;17.50;99.90
5154;DHT22;2595;53.584;10.084;2022-07-23T06:39:33;17.60;99.90
5154;DHT22;2595;53.584;10.084;2022-07-23T06:41:59;17.50;99.90
5154;DHT22;2595;53.584;10.084;2022-07-23T06:44:26;17.50;99.90
5154;DHT22;2595;53.584;10.084;2022-07-23T06:46:52;17.60;99.90
5154;DHT22;2595;53.584;10.084;2022-07-23T06:49:17;17.60;99.90
5154;DHT22;2595;53.584;10.084;2022-07-23T06:51:43;17.60;99.90
5154;DHT22;2595;53.584;10.084;2022-07-23T06:54:09;17.60;99.90
5154;DHT22;2595;53.584;10.084;2022-07-23T06:56:34;17.70;99.90
5154;DHT22;2595;53.584;10.084;2022-07-23T06:59:00;17.80;99.90
5154;DHT22;2595;53.584;10.084;2022-07-23T07:01:25;17.80;99.90
5154;DHT22;2595;53.584;10.084;2022-07-23T07:03:51;17.80;99.90
5154;DHT22;2595;53.584;10.084;2022-07-23T07:06:17;17.80;99.90
5154;DHT22;2595;53.584;10.084;2022-07-23T07:08:42;17.80;99.90
5154;DHT22;2595;53.584;10.084;2022-07-23T07:11:09;17.70;99.90
5154;DHT22;2595;53.584;10.084;2022-07-23T07:13:35;17.80;99.90
5154;DHT22;2595;53.584;10.084;2022-07-23T07:16:01;17.60;99.90
5154;DHT22;2595;53.584;10.084;2022-07-23T07:18:27;17.50;99.90
5154;DHT22;2595;53.584;10.084;2022-07-23T07:20:52;17.50;99.90
5154;DHT22;2595;53.584;10.084;2022-07-23T07:23:18;17.40;99.90
5154;DHT22;2595;53.584;10.084;2022-07-23T07:25:45;17.60;99.90
5154;DHT22;2595;53.584;10.084;2022-07-23T07:28:11;17.60;99.90
5154;DHT22;2595;53.584;10.084;2022-07-23T07:30:37;17.60;99.90
5154;DHT22;2595;53.584;10.084;2022-07-23T07:33:02;17.70;99.90
5154;DHT22;2595;53.584;10.084;2022-07-23T07:35:28;17.70;99.90
5154;DHT22;2595;53.584;10.084;2022-07-23T07:37:54;17.70;99.90
5154;DHT22;2595;53.584;10.084;2022-07-23T07:40:19;17.70;99.90
5154;DHT22;2595;53.584;10.084;2022-07-23T07:42:47;17.50;99.90
5154;DHT22;2595;53.584;10.084;2022-07-23T07:45:13;17.40;99.90
5154;DHT22;2595;53.584;10.084;2022-07-23T07:47:38;17.40;99.90
5154;DHT22;2595;53.584;10.084;2022-07-23T07:50:04;17.40;99.90
5154;DHT22;2595;53.584;10.084;2022-07-23T07:52:30;17.40;99.90
5154;DHT22;2595;53.584;10.084;2022-07-23T07:54:56;17.40;99.90
5154;DHT22;2595;53.584;10.084;2022-07-23T07:57:21;17.40;99.90
5154;DHT22;2595;53.584;10.084;2022-07-23T07:59:47;17.30;99.90
5154;DHT22;2595;53.584;10.084;2022-07-23T08:02:12;17.30;99.90
5154;DHT22;2595;53.584;10.084;2022-07-23T08:04:38;17.30;99.90
5154;DHT22;2595;53.584;10.084;2022-07-23T08:07:04;17.40;99.90
5154;DHT22;2595;53.584;10.084;2022-07-23T08:09:29;17.40;99.90
5154;DHT22;2595;53.584;10.084;2022-07-23T08:11:55;17.50;99.90
5154;DHT22;2595;53.584;10.084;2022-07-23T08:14:20;17.50;99.90
5154;DHT22;2595;53.584;10.084;2022-07-23T08:16:46;17.50;99.90
5154;DHT22;2595;53.584;10.084;2022-07-23T08:19:11;17.60;99.90
5154;DHT22;2595;53.584;10.084;2022-07-23T08:21:37;17.50;99.90
5154;DHT22;2595;53.584;10.084;2022-07-23T08:24:03;17.70;99.90
5154;DHT22;2595;53.584;10.084;2022-07-23T08:26:28;17.80;99.90
5154;DHT22;2595;53.584;10.084;2022-07-23T08:28:54;17.80;99.90
5154;DHT22;2595;53.584;10.084;2022-07-23T08:31:19;17.70;99.90
5154;DHT22;2595;53.584;10.084;2022-07-23T08:33:45;17.60;99.90
5154;DHT22;2595;53.584;10.084;2022-07-23T08:36:11;17.50;99.90
5154;DHT22;2595;53.584;10.084;2022-07-23T08:38:36;17.40;99.90
5154;DHT22;2595;53.584;10.084;2022-07-23T08:41:02;17.40;99.90
5154;DHT22;2595;53.584;10.084;2022-07-23T08:43:31;17.30;99.90
5154;DHT22;2595;53.584;10.084;2022-07-23T08:45:58;17.30;99.90
5154;DHT22;2595;53.584;10.084;2022-07-23T08:48:31;17.30;99.90
5154;DHT22;2595;53.584;10.084;2022-07-23T08:51:00;17.30;99.90
5154;DHT22;2595;53.584;10.084;2022-07-23T08:53:27;17.40;99.90
5154;DHT22;2595;53.584;10.084;2022-07-23T08:55:59;17.40;99.90
5154;DHT22;2595;53.584;10.084;2022-07-23T08:58:27;17.50;99.90
5154;DHT22;2595;53.584;10.084;2022-07-23T09:00:53;17.50;99.90
5154;DHT22;2595;53.584;10.084;2022-07-23T09:03:30;17.60;99.90
5154;DHT22;2595;53.584;10.084;2022-07-23T09:05:57;17.70;99.90
5154;DHT22;2595;53.584;10.084;2022-07-23T09:08:25;17.80;99.90
5154;DHT22;2595;53.584;10.084;2022-07-23T09:10:59;18.00;99.90
5154;DHT22;2595;53.584;10.084;2022-07-23T09:15:54;18.10;99.90
5154;DHT22;2595;53.584;10.084;2022-07-23T09:18:31;18.20;99.90
5154;DHT22;2595;53.584;10.084;2022-07-23T09:21:12;18.20;99.90
5154;DHT22;2595;53.584;10.084;2022-07-23T09:23:57;18.30;99.90
5154;DHT22;2595;53.584;10.084;2022-07-23T09:26:40;18.40;99.90
5154;DHT22;2595;53.584;10.084;2022-07-23T09:34:32;18.70;99.90
5154;DHT22;2595;53.584;10.084;2022-07-23T09:37:17;18.70;99.90
5154;DHT22;2595;53.584;10.084;2022-07-23T09:39:45;18.90;99.90
5154;DHT22;2595;53.584;10.084;2022-07-23T09:42:21;18.90;99.90
5154;DHT22;2595;53.584;10.084;2022-07-23T09:44:48;18.80;99.90
5154;DHT22;2595;53.584;10.084;2022-07-23T09:47:15;18.80;99.90
5154;DHT22;2595;53.584;10.084;2022-07-23T09:49:58;18.90;99.90
5154;DHT22;2595;53.584;10.084;2022-07-23T09:52:48;18.90;99.90
5154;DHT22;2595;53.584;10.084;2022-07-23T09:55:16;18.90;99.90
5154;DHT22;2595;53.584;10.084;2022-07-23T09:57:42;18.90;99.90
5154;DHT22;2595;53.584;10.084;2022-07-23T10:00:12;18.90;99.90
5154;DHT22;2595;53.584;10.084;2022-07-23T10:02:38;18.90;99.90
5154;DHT22;2595;53.584;10.084;2022-07-23T10:05:05;18.80;99.90
5154;DHT22;2595;53.584;10.084;2022-07-23T10:07:37;18.80;99.90
5154;DHT22;2595;53.584;10.084;2022-07-23T10:10:04;18.80;99.90
5154;DHT22;2595;53.584;10.084;2022-07-23T10:12:30;18.80;99.90
5154;DHT22;2595;53.584;10.084;2022-07-23T10:14:57;18.80;99.90
5154;DHT22;2595;53.584;10.084;2022-07-23T10:17:23;18.80;99.90
5154;DHT22;2595;53.584;10.084;2022-07-23T10:19:49;18.70;99.90
5154;DHT22;2595;53.584;10.084;2022-07-23T10:22:21;18.70;99.90
5154;DHT22;2595;53.584;10.084;2022-07-23T10:30:41;18.60;99.90
5154;DHT22;2595;53.584;10.084;2022-07-23T10:33:30;18.60;99.90
5154;DHT22;2595;53.584;10.084;2022-07-23T10:36:09;18.60;99.90
5154;DHT22;2595;53.584;10.084;2022-07-23T10:38:47;18.70;99.90
5154;DHT22;2595;53.584;10.084;2022-07-23T10:41:15;18.80;99.90
5154;DHT22;2595;53.584;10.084;2022-07-23T10:44:11;19.00;99.90
5154;DHT22;2595;53.584;10.084;2022-07-23T10:49:39;19.10;99.90
5154;DHT22;2595;53.584;10.084;2022-07-23T10:57:50;19.40;99.90
5154;DHT22;2595;53.584;10.084;2022-07-23T11:00:20;19.70;99.90
5154;DHT22;2595;53.584;10.084;2022-07-23T11:02:47;19.80;99.90
5154;DHT22;2595;53.584;10.084;2022-07-23T11:05:15;19.90;99.90
5154;DHT22;2595;53.584;10.084;2022-07-23T11:10:42;20.00;99.90
5154;DHT22;2595;53.584;10.084;2022-07-23T11:13:30;20.00;99.90
5154;DHT22;2595;53.584;10.084;2022-07-23T11:24:12;19.80;99.90
5154;DHT22;2595;53.584;10.084;2022-07-23T11:26:55;19.70;99.90
5154;DHT22;2595;53.584;10.084;2022-07-23T11:34:31;19.50;99.90
5154;DHT22;2595;53.584;10.084;2022-07-23T11:36:58;19.50;99.90
5154;DHT22;2595;53.584;10.084;2022-07-23T11:39:26;19.40;99.90
5154;DHT22;2595;53.584;10.084;2022-07-23T11:41:52;19.50;99.90
5154;DHT22;2595;53.584;10.084;2022-07-23T11:44:29;19.60;99.90
5154;DHT22;2595;53.584;10.084;2022-07-23T11:47:00;19.70;99.90
5154;DHT22;2595;53.584;10.084;2022-07-23T11:49:27;19.70;99.90
5154;DHT22;2595;53.584;10.084;2022-07-23T11:52:06;19.80;99.90
5154;DHT22;2595;53.584;10.084;2022-07-23T11:54:34;19.80;99.90
5154;DHT22;2595;53.584;10.084;2022-07-23T11:57:02;19.80;99.90
5154;DHT22;2595;53.584;10.084;2022-07-23T11:59:32;19.80;99.90
5154;DHT22;2595;53.584;10.084;2022-07-23T12:02:04;19.90;99.90
5154;DHT22;2595;53.584;10.084;2022-07-23T12:04:44;19.90;99.90
5154;DHT22;2595;53.584;10.084;2022-07-23T12:09:52;19.90;99.90
5154;DHT22;2595;53.584;10.084;2022-07-23T12:12:17;19.90;99.90
5154;DHT22;2595;53.584;10.084;2022-07-23T12:14:51;19.80;99.90
5154;DHT22;2595;53.584;10.084;2022-07-23T12:17:18;19.80;99.90
5154;DHT22;2595;53.584;10.084;2022-07-23T12:19:44;19.80;99.90
5154;DHT22;2595;53.584;10.084;2022-07-23T12:22:10;19.80;99.90
5154;DHT22;2595;53.584;10.084;2022-07-23T12:24:56;19.80;99.90
5154;DHT22;2595;53.584;10.084;2022-07-23T12:27:23;19.70;99.90
5154;DHT22;2595;53.584;10.084;2022-07-23T12:29:49;19.80;99.90
5154;DHT22;2595;53.584;10.084;2022-07-23T12:35:00;19.80;99.90
5154;DHT22;2595;53.584;10.084;2022-07-23T12:37:30;19.80;99.90
5154;DHT22;2595;53.584;10.084;2022-07-23T12:39:56;19.80;99.90
5154;DHT22;2595;53.584;10.084;2022-07-23T12:42:22;19.80;99.90
5154;DHT22;2595;53.584;10.084;2022-07-23T12:45:10;19.80;99.90
5154;DHT22;2595;53.584;10.084;2022-07-23T12:50:37;19.90;99.90
5154;DHT22;2595;53.584;10.084;2022-07-23T12:53:21;20.00;99.90
5154;DHT22;2595;53.584;10.084;2022-07-23T12:55:48;20.10;99.90
5154;DHT22;2595;53.584;10.084;2022-07-23T12:58:18;20.20;99.90
5154;DHT22;2595;53.584;10.084;2022-07-23T13:01:04;20.10;99.90
5154;DHT22;2595;53.584;10.084;2022-07-23T13:03:41;20.00;99.90
5154;DHT22;2595;53.584;10.084;2022-07-23T13:06:08;20.00;99.90
5154;DHT22;2595;53.584;10.084;2022-07-23T13:08:37;20.00;99.90
5154;DHT22;2595;53.584;10.084;2022-07-23T13:11:04;20.20;99.90
5154;DHT22;2595;53.584;10.084;2022-07-23T13:13:32;20.50;99.90
5154;DHT22;2595;53.584;10.084;2022-07-23T13:15:58;20.80;99.90
5154;DHT22;2595;53.584;10.084;2022-07-23T13:18:26;20.90;99.90
5154;DHT22;2595;53.584;10.084;2022-07-23T13:20:52;20.80;99.90
5154;DHT22;2595;53.584;10.084;2022-07-23T13:23:18;20.80;99.90
5154;DHT22;2595;53.584;10.084;2022-07-23T13:25:45;20.80;99.90
5154;DHT22;2595;53.584;10.084;2022-07-23T13:28:11;20.70;99.90
5154;DHT22;2595;53.584;10.084;2022-07-23T13:30:38;20.70;99.90
5154;DHT22;2595;53.584;10.084;2022-07-23T13:33:04;20.60;99.90
5154;DHT22;2595;53.584;10.084;2022-07-23T13:35:30;20.60;99.90
5154;DHT22;2595;53.584;10.084;2022-07-23T13:37:56;20.60;99.90
5154;DHT22;2595;53.584;10.084;2022-07-23T13:40:22;20.50;99.90
5154;DHT22;2595;53.584;10.084;2022-07-23T13:42:48;20.40;99.90
5154;DHT22;2595;53.584;10.084;2022-07-23T13:45:13;20.20;99.90
5154;DHT22;2595;53.584;10.084;2022-07-23T13:47:39;20.20;99.90
5154;DHT22;2595;53.584;10.084;2022-07-23T13:50:05;20.20;99.90
5154;DHT22;2595;53.584;10.084;2022-07-23T13:52:31;20.20;99.90
5154;DHT22;2595;53.584;10.084;2022-07-23T13:55:02;20.10;99.90
5154;DHT22;2595;53.584;10.084;2022-07-23T13:57:29;20.00;99.90
5154;DHT22;2595;53.584;10.084;2022-07-23T13:59:55;20.00;99.90
5154;DHT22;2595;53.584;10.084;2022-07-23T14:02:21;20.00;99.90
5154;DHT22;2595;53.584;10.084;2022-07-23T14:04:47;19.90;99.90
5154;DHT22;2595;53.584;10.084;2022-07-23T14:07:13;20.00;99.90
5154;DHT22;2595;53.584;10.084;2022-07-23T14:09:39;20.10;99.90
5154;DHT22;2595;53.584;10.084;2022-07-23T14:12:05;20.30;99.90
5154;DHT22;2595;53.584;10.084;2022-07-23T14:14:31;20.50;99.90
5154;DHT22;2595;53.584;10.084;2022-07-23T14:16:56;20.50;99.90
5154;DHT22;2595;53.584;10.084;2022-07-23T14:19:23;20.50;99.90
5154;DHT22;2595;53.584;10.084;2022-07-23T14:21:48;20.30;99.90
5154;DHT22;2595;53.584;10.084;2022-07-23T14:24:15;20.20;99.90
5154;DHT22;2595;53.584;10.084;2022-07-23T14:26:41;20.20;99.90
5154;DHT22;2595;53.584;10.084;2022-07-23T14:29:06;20.10;99.90
5154;DHT22;2595;53.584;10.084;2022-07-23T14:31:32;20.00;99.90
5154;DHT22;2595;53.584;10.084;2022-07-23T14:33:58;20.10;99.90
5154;DHT22;2595;53.584;10.084;2022-07-23T14:36:25;20.10;99.90
5154;DHT22;2595;53.584;10.084;2022-07-23T14:38:51;20.20;99.90
5154;DHT22;2595;53.584;10.084;2022-07-23T14:41:17;20.30;99.90
5154;DHT22;2595;53.584;10.084;2022-07-23T14:43:43;20.60;99.90
5154;DHT22;2595;53.584;10.084;2022-07-23T14:46:09;20.80;99.90
5154;DHT22;2595;53.584;10.084;2022-07-23T14:48:37;20.70;99.90
5154;DHT22;2595;53.584;10.084;2022-07-23T14:51:03;20.90;99.90
5154;DHT22;2595;53.584;10.084;2022-07-23T14:53:29;21.10;99.90
5154;DHT22;2595;53.584;10.084;2022-07-23T14:55:55;21.30;99.90
5154;DHT22;2595;53.584;10.084;2022-07-23T14:58:22;21.40;99.90
5154;DHT22;2595;53.584;10.084;2022-07-23T15:00:49;21.30;99.90
5154;DHT22;2595;53.584;10.084;2022-07-23T15:03:14;21.20;99.90
5154;DHT22;2595;53.584;10.084;2022-07-23T15:05:40;21.10;99.90
5154;DHT22;2595;53.584;10.084;2022-07-23T15:08:06;21.00;99.90
5154;DHT22;2595;53.584;10.084;2022-07-23T15:10:31;20.90;99.90
5154;DHT22;2595;53.584;10.084;2022-07-23T15:12:57;20.80;99.90
5154;DHT22;2595;53.584;10.084;2022-07-23T15:15:22;20.80;99.90
5154;DHT22;2595;53.584;10.084;2022-07-23T15:17:48;20.70;99.90
5154;DHT22;2595;53.584;10.084;2022-07-23T15:20:14;20.60;99.90
5154;DHT22;2595;53.584;10.084;2022-07-23T15:22:40;20.60;99.90
5154;DHT22;2595;53.584;10.084;2022-07-23T15:25:06;20.60;99.90
5154;DHT22;2595;53.584;10.084;2022-07-23T15:27:32;20.60;99.90
5154;DHT22;2595;53.584;10.084;2022-07-23T15:29:57;20.50;99.90
5154;DHT22;2595;53.584;10.084;2022-07-23T15:32:23;20.40;99.90
5154;DHT22;2595;53.584;10.084;2022-07-23T15:34:52;20.30;99.90
5154;DHT22;2595;53.584;10.084;2022-07-23T15:37:18;20.20;99.90
5154;DHT22;2595;53.584;10.084;2022-07-23T15:39:43;20.20;99.90
5154;DHT22;2595;53.584;10.084;2022-07-23T15:42:09;20.10;99.90
5154;DHT22;2595;53.584;10.084;2022-07-23T15:44:35;20.10;99.90
5154;DHT22;2595;53.584;10.084;2022-07-23T15:47:00;20.10;99.90
5154;DHT22;2595;53.584;10.084;2022-07-23T15:49:27;20.20;99.90
5154;DHT22;2595;53.584;10.084;2022-07-23T15:51:53;20.20;99.90
5154;DHT22;2595;53.584;10.084;2022-07-23T15:54:20;20.20;99.90
5154;DHT22;2595;53.584;10.084;2022-07-23T15:56:46;20.30;99.90
5154;DHT22;2595;53.584;10.084;2022-07-23T15:59:12;20.40;99.90
5154;DHT22;2595;53.584;10.084;2022-07-23T16:01:38;20.30;99.90
5154;DHT22;2595;53.584;10.084;2022-07-23T16:04:04;20.30;99.90
5154;DHT22;2595;53.584;10.084;2022-07-23T16:06:32;20.20;99.90
5154;DHT22;2595;53.584;10.084;2022-07-23T16:08:58;20.20;99.90
5154;DHT22;2595;53.584;10.084;2022-07-23T16:11:25;20.20;99.90
5154;DHT22;2595;53.584;10.084;2022-07-23T16:13:51;20.10;99.90
5154;DHT22;2595;53.584;10.084;2022-07-23T16:16:16;20.10;99.90
5154;DHT22;2595;53.584;10.084;2022-07-23T16:18:42;20.10;99.90
5154;DHT22;2595;53.584;10.084;2022-07-23T16:21:08;20.10;99.90
5154;DHT22;2595;53.584;10.084;2022-07-23T16:23:34;19.90;99.90
5154;DHT22;2595;53.584;10.084;2022-07-23T16:26:00;19.90;99.90
5154;DHT22;2595;53.584;10.084;2022-07-23T16:28:25;20.00;99.90
5154;DHT22;2595;53.584;10.084;2022-07-23T16:30:51;20.00;99.90